sensor_id;sensor_type;location;lat;lon;timestamp;pressure;altitude;pressure_sealevel;temperature;humidity
44313;BME280;38833;51.142;-0.974;2024-02-14T00:01:12;99580.88;;;27.35;28.10
44313;BME280;38833;51.142;-0.974;2024-02-14T00:03:45;99577.42;;;27.47;27.96
44313;BME280;38833;51.142;-0.974;2024-02-14T00:06:18;99584.39;;;27.14;28.03
44313;BME280;38833;51.142;-0.974;2024-02-14T00:08:52;99583.15;;;27.38;27.98
44313;BME280;38833;51.142;-0.974;2024-02-14T00:11:25;99583.64;;;27.30;28.03
44313;BME280;38833;51.142;-0.974;2024-02-14T00:13:58;99580.62;;;27.32;27.98
44313;BME280;38833;51.142;-0.974;2024-02-14T00:16:32;99578.83;;;27.25;28.04
44313;BME280;38833;51.142;-0.974;2024-02-14T00:19:05;99578.41;;;27.04;27.99
44313;BME280;38833;51.142;-0.974;2024-02-14T00:21:39;99576.22;;;27.22;27.97
44313;BME280;38833;51.142;-0.974;2024-02-14T00:24:12;99579.37;;;27.18;28.00
44313;BME280;38833;51.142;-0.974;2024-02-14T00:26:45;99581.48;;;27.15;28.01
44313;BME280;38833;51.142;-0.974;2024-02-14T00:29:19;99579.15;;;27.10;28.00
44313;BME280;38833;51.142;-0.974;2024-02-14T00:31:52;99581.00;;;26.81;28.04
44313;BME280;38833;51.142;-0.974;2024-02-14T00:34:25;99581.02;;;27.03;28.04
44313;BME280;38833;51.142;-0.974;2024-02-14T00:36:59;99584.44;;;26.97;28.04
44313;BME280;38833;51.142;-0.974;2024-02-14T00:39:32;99583.65;;;26.85;28.16
44313;BME280;38833;51.142;-0.974;2024-02-14T00:42:05;99585.44;;;26.82;28.16
44313;BME280;38833;51.142;-0.974;2024-02-14T00:44:39;99585.49;;;26.82;28.14
44313;BME280;38833;51.142;-0.974;2024-02-14T00:47:12;99586.95;;;26.81;28.11
44313;BME280;38833;51.142;-0.974;2024-02-14T00:49:45;99585.50;;;26.77;28.16
44313;BME280;38833;51.142;-0.974;2024-02-14T00:52:19;99581.54;;;26.67;28.20
44313;BME280;38833;51.142;-0.974;2024-02-14T00:54:52;99583.65;;;26.66;28.18
44313;BME280;38833;51.142;-0.974;2024-02-14T00:57:25;99587.61;;;26.66;28.17
44313;BME280;38833;51.142;-0.974;2024-02-14T00:59:59;99587.15;;;26.66;28.14
44313;BME280;38833;51.142;-0.974;2024-02-14T01:02:32;99583.52;;;26.75;28.25
44313;BME280;38833;51.142;-0.974;2024-02-14T01:05:06;99585.09;;;26.50;28.23
44313;BME280;38833;51.142;-0.974;2024-02-14T01:07:40;99586.17;;;26.50;28.24
44313;BME280;38833;51.142;-0.974;2024-02-14T01:10:13;99591.61;;;26.28;28.19
44313;BME280;38833;51.142;-0.974;2024-02-14T01:12:47;99585.14;;;26.48;28.21
44313;BME280;38833;51.142;-0.974;2024-02-14T01:15:20;99590.54;;;26.62;28.24
44313;BME280;38833;51.142;-0.974;2024-02-14T01:17:53;99594.11;;;26.53;28.31
44313;BME280;38833;51.142;-0.974;2024-02-14T01:20:26;99595.63;;;26.59;28.24
44313;BME280;38833;51.142;-0.974;2024-02-14T01:23:00;99583.36;;;26.25;28.32
44313;BME280;38833;51.142;-0.974;2024-02-14T01:25:33;99586.44;;;26.48;28.31
44313;BME280;38833;51.142;-0.974;2024-02-14T01:28:06;99586.31;;;26.21;28.32
44313;BME280;38833;51.142;-0.974;2024-02-14T01:30:40;99580.33;;;26.25;28.25
44313;BME280;38833;51.142;-0.974;2024-02-14T01:33:13;99578.00;;;26.36;28.33
44313;BME280;38833;51.142;-0.974;2024-02-14T01:35:46;99579.75;;;26.18;28.28
44313;BME280;38833;51.142;-0.974;2024-02-14T01:38:20;99573.52;;;26.40;28.25
44313;BME280;38833;51.142;-0.974;2024-02-14T01:40:53;99579.92;;;26.29;28.33
44313;BME280;38833;51.142;-0.974;2024-02-14T01:43:26;99578.49;;;26.20;28.41
44313;BME280;38833;51.142;-0.974;2024-02-14T01:46:05;99581.31;;;25.99;28.39
44313;BME280;38833;51.142;-0.974;2024-02-14T01:48:39;99585.90;;;26.21;28.37
44313;BME280;38833;51.142;-0.974;2024-02-14T01:51:13;99587.70;;;26.17;28.36
44313;BME280;38833;51.142;-0.974;2024-02-14T01:53:48;99589.69;;;26.14;28.41
44313;BME280;38833;51.142;-0.974;2024-02-14T01:56:21;99590.56;;;26.43;28.37
44313;BME280;38833;51.142;-0.974;2024-02-14T01:58:54;99593.38;;;26.16;28.37
44313;BME280;38833;51.142;-0.974;2024-02-14T02:01:28;99592.05;;;25.87;28.37
44313;BME280;38833;51.142;-0.974;2024-02-14T02:04:02;99586.17;;;26.01;28.42
44313;BME280;38833;51.142;-0.974;2024-02-14T02:06:35;99588.27;;;26.25;28.43
44313;BME280;38833;51.142;-0.974;2024-02-14T02:09:09;99587.99;;;25.95;28.43
44313;BME280;38833;51.142;-0.974;2024-02-14T02:11:46;99587.25;;;25.95;28.42
44313;BME280;38833;51.142;-0.974;2024-02-14T02:14:19;99592.15;;;26.26;28.36
44313;BME280;38833;51.142;-0.974;2024-02-14T02:16:53;99593.06;;;25.98;28.35
44313;BME280;38833;51.142;-0.974;2024-02-14T02:19:26;99596.92;;;26.14;28.45
44313;BME280;38833;51.142;-0.974;2024-02-14T02:21:59;99601.69;;;26.09;28.53
44313;BME280;38833;51.142;-0.974;2024-02-14T02:24:32;99604.96;;;25.80;28.49
44313;BME280;38833;51.142;-0.974;2024-02-14T02:27:06;99603.62;;;26.02;28.51
44313;BME280;38833;51.142;-0.974;2024-02-14T02:29:39;99596.57;;;26.03;28.53
44313;BME280;38833;51.142;-0.974;2024-02-14T02:32:13;99594.11;;;25.99;28.53
44313;BME280;38833;51.142;-0.974;2024-02-14T02:34:46;99597.12;;;25.74;28.47
44313;BME280;38833;51.142;-0.974;2024-02-14T02:37:19;99590.36;;;25.97;28.50
44313;BME280;38833;51.142;-0.974;2024-02-14T02:39:52;99584.01;;;25.98;28.46
44313;BME280;38833;51.142;-0.974;2024-02-14T02:42:26;99585.42;;;25.58;28.58
44313;BME280;38833;51.142;-0.974;2024-02-14T02:44:59;99585.03;;;25.71;28.46
44313;BME280;38833;51.142;-0.974;2024-02-14T02:47:32;99589.55;;;25.98;28.44
44313;BME280;38833;51.142;-0.974;2024-02-14T02:50:06;99595.91;;;25.93;28.46
44313;BME280;38833;51.142;-0.974;2024-02-14T02:52:39;99593.54;;;25.82;28.54
44313;BME280;38833;51.142;-0.974;2024-02-14T02:55:13;99587.55;;;25.51;28.62
44313;BME280;38833;51.142;-0.974;2024-02-14T02:57:46;99590.22;;;25.87;28.55
44313;BME280;38833;51.142;-0.974;2024-02-14T03:00:20;99591.60;;;25.73;28.58
44313;BME280;38833;51.142;-0.974;2024-02-14T03:02:53;99589.84;;;25.74;28.55
44313;BME280;38833;51.142;-0.974;2024-02-14T03:05:26;99583.29;;;25.71;28.61
44313;BME280;38833;51.142;-0.974;2024-02-14T03:08:00;99584.07;;;25.67;28.61
44313;BME280;38833;51.142;-0.974;2024-02-14T03:10:33;99586.12;;;25.66;28.59
44313;BME280;38833;51.142;-0.974;2024-02-14T03:13:07;99587.15;;;25.58;28.67
44313;BME280;38833;51.142;-0.974;2024-02-14T03:15:40;99586.91;;;25.58;28.66
44313;BME280;38833;51.142;-0.974;2024-02-14T03:18:13;99576.01;;;25.64;28.60
44313;BME280;38833;51.142;-0.974;2024-02-14T03:20:47;99577.78;;;25.57;28.64
44313;BME280;38833;51.142;-0.974;2024-02-14T03:23:20;99575.68;;;25.53;28.65
44313;BME280;38833;51.142;-0.974;2024-02-14T03:25:54;99581.31;;;25.49;28.67
44313;BME280;38833;51.142;-0.974;2024-02-14T03:28:27;99579.28;;;25.49;28.66
44313;BME280;38833;51.142;-0.974;2024-02-14T03:31:00;99582.28;;;25.45;28.66
44313;BME280;38833;51.142;-0.974;2024-02-14T03:33:34;99581.18;;;25.35;28.76
44313;BME280;38833;51.142;-0.974;2024-02-14T03:36:07;99578.29;;;25.35;28.72
44313;BME280;38833;51.142;-0.974;2024-02-14T03:38:40;99577.53;;;25.36;28.70
44313;BME280;38833;51.142;-0.974;2024-02-14T03:41:14;99579.73;;;25.34;28.72
44313;BME280;38833;51.142;-0.974;2024-02-14T03:43:47;99579.74;;;25.28;28.80
44313;BME280;38833;51.142;-0.974;2024-02-14T03:46:20;99576.46;;;25.48;28.78
44313;BME280;38833;51.142;-0.974;2024-02-14T03:48:54;99576.11;;;25.30;28.75
44313;BME280;38833;51.142;-0.974;2024-02-14T03:51:27;99575.10;;;25.19;28.80
44313;BME280;38833;51.142;-0.974;2024-02-14T03:54:01;99577.85;;;25.17;28.79
44313;BME280;38833;51.142;-0.974;2024-02-14T03:56:34;99585.11;;;25.20;28.79
44313;BME280;38833;51.142;-0.974;2024-02-14T03:59:07;99589.17;;;25.16;28.82
44313;BME280;38833;51.142;-0.974;2024-02-14T04:01:44;99593.93;;;25.18;28.78
44313;BME280;38833;51.142;-0.974;2024-02-14T04:04:18;99592.91;;;25.06;28.85
44313;BME280;38833;51.142;-0.974;2024-02-14T04:06:51;99592.41;;;25.12;28.80
44313;BME280;38833;51.142;-0.974;2024-02-14T04:09:24;99586.76;;;25.29;28.81
44313;BME280;38833;51.142;-0.974;2024-02-14T04:11:57;99588.51;;;25.05;28.83
44313;BME280;38833;51.142;-0.974;2024-02-14T04:14:31;99590.21;;;25.31;28.76
44313;BME280;38833;51.142;-0.974;2024-02-14T04:17:05;99592.50;;;25.06;28.80
44313;BME280;38833;51.142;-0.974;2024-02-14T04:19:39;99592.39;;;25.17;28.86
44313;BME280;38833;51.142;-0.974;2024-02-14T04:22:12;99587.71;;;24.94;28.85
44313;BME280;38833;51.142;-0.974;2024-02-14T04:24:56;99581.62;;;24.96;28.83
44313;BME280;38833;51.142;-0.974;2024-02-14T04:27:29;99580.47;;;25.12;28.66
44313;BME280;38833;51.142;-0.974;2024-02-14T04:30:03;99574.21;;;25.03;28.75
44313;BME280;38833;51.142;-0.974;2024-02-14T04:32:36;99579.61;;;25.18;28.81
44313;BME280;38833;51.142;-0.974;2024-02-14T04:35:25;99578.21;;;24.90;28.83
44313;BME280;38833;51.142;-0.974;2024-02-14T04:37:58;99580.67;;;24.75;28.70
44313;BME280;38833;51.142;-0.974;2024-02-14T04:40:31;99583.73;;;25.07;28.67
44313;BME280;38833;51.142;-0.974;2024-02-14T04:43:05;99584.99;;;25.28;28.66
44313;BME280;38833;51.142;-0.974;2024-02-14T04:45:38;99586.40;;;25.12;28.78
44313;BME280;38833;51.142;-0.974;2024-02-14T04:48:11;99586.22;;;24.85;28.82
44313;BME280;38833;51.142;-0.974;2024-02-14T04:50:45;99583.90;;;25.26;28.85
44313;BME280;38833;51.142;-0.974;2024-02-14T04:53:18;99584.37;;;25.18;28.95
44313;BME280;38833;51.142;-0.974;2024-02-14T04:55:51;99582.47;;;24.99;28.89
44313;BME280;38833;51.142;-0.974;2024-02-14T04:58:25;99583.94;;;25.12;28.94
44313;BME280;38833;51.142;-0.974;2024-02-14T05:00:58;99579.36;;;24.93;28.90
44313;BME280;38833;51.142;-0.974;2024-02-14T05:03:32;99587.68;;;24.87;28.96
44313;BME280;38833;51.142;-0.974;2024-02-14T05:06:05;99586.60;;;24.67;28.93
44313;BME280;38833;51.142;-0.974;2024-02-14T05:08:38;99588.03;;;24.80;28.97
44313;BME280;38833;51.142;-0.974;2024-02-14T05:11:11;99587.68;;;24.57;28.95
44313;BME280;38833;51.142;-0.974;2024-02-14T05:13:45;99601.00;;;24.85;28.94
44313;BME280;38833;51.142;-0.974;2024-02-14T05:16:18;99601.46;;;24.75;29.02
44313;BME280;38833;51.142;-0.974;2024-02-14T05:18:52;99598.01;;;24.75;29.02
44313;BME280;38833;51.142;-0.974;2024-02-14T05:21:25;99593.07;;;25.02;28.94
44313;BME280;38833;51.142;-0.974;2024-02-14T05:23:58;99591.86;;;24.94;29.01
44313;BME280;38833;51.142;-0.974;2024-02-14T05:26:32;99592.69;;;24.94;28.95
44313;BME280;38833;51.142;-0.974;2024-02-14T05:29:05;99595.21;;;24.44;29.01
44313;BME280;38833;51.142;-0.974;2024-02-14T05:31:44;99591.03;;;24.48;28.99
44313;BME280;38833;51.142;-0.974;2024-02-14T05:34:18;99595.45;;;24.67;29.02
44313;BME280;38833;51.142;-0.974;2024-02-14T05:36:51;99596.37;;;24.41;29.05
44313;BME280;38833;51.142;-0.974;2024-02-14T05:39:25;99590.87;;;24.58;29.07
44313;BME280;38833;51.142;-0.974;2024-02-14T05:41:58;99591.78;;;24.77;29.10
44313;BME280;38833;51.142;-0.974;2024-02-14T05:44:32;99597.38;;;24.00;29.86
44313;BME280;38833;51.142;-0.974;2024-02-14T05:47:05;99597.56;;;24.50;29.64
44313;BME280;38833;51.142;-0.974;2024-02-14T05:49:38;99599.29;;;24.53;29.63
44313;BME280;38833;51.142;-0.974;2024-02-14T05:52:12;99600.25;;;24.75;29.49
44313;BME280;38833;51.142;-0.974;2024-02-14T05:54:46;99600.12;;;24.88;29.45
44313;BME280;38833;51.142;-0.974;2024-02-14T05:57:19;99601.17;;;24.95;29.45
44313;BME280;38833;51.142;-0.974;2024-02-14T05:59:52;99598.57;;;24.81;29.46
44313;BME280;38833;51.142;-0.974;2024-02-14T06:02:25;99591.97;;;25.23;29.37
44313;BME280;38833;51.142;-0.974;2024-02-14T06:04:59;99592.42;;;25.13;29.09
44313;BME280;38833;51.142;-0.974;2024-02-14T06:07:32;99592.94;;;25.18;29.16
44313;BME280;38833;51.142;-0.974;2024-02-14T06:10:07;99596.02;;;25.19;29.16
44313;BME280;38833;51.142;-0.974;2024-02-14T06:12:40;99600.38;;;25.30;29.17
44313;BME280;38833;51.142;-0.974;2024-02-14T06:15:13;99604.20;;;25.83;28.92
44313;BME280;38833;51.142;-0.974;2024-02-14T06:17:47;99600.67;;;25.51;29.09
44313;BME280;38833;51.142;-0.974;2024-02-14T06:20:20;99594.80;;;25.65;29.02
44313;BME280;38833;51.142;-0.974;2024-02-14T06:22:53;99591.88;;;25.76;28.72
44313;BME280;38833;51.142;-0.974;2024-02-14T06:25:27;99590.88;;;25.89;28.92
44313;BME280;38833;51.142;-0.974;2024-02-14T06:28:00;99596.09;;;26.42;28.42
44313;BME280;38833;51.142;-0.974;2024-02-14T06:30:33;99592.34;;;25.82;28.86
44313;BME280;38833;51.142;-0.974;2024-02-14T06:33:07;99588.59;;;26.44;28.27
44313;BME280;38833;51.142;-0.974;2024-02-14T06:35:40;99583.05;;;26.41;28.16
44313;BME280;38833;51.142;-0.974;2024-02-14T06:38:13;99595.98;;;26.30;28.28
44313;BME280;38833;51.142;-0.974;2024-02-14T06:40:47;99596.66;;;26.45;28.19
44313;BME280;38833;51.142;-0.974;2024-02-14T06:43:20;99591.18;;;26.79;28.15
44313;BME280;38833;51.142;-0.974;2024-02-14T06:45:53;99586.86;;;26.80;27.96
44313;BME280;38833;51.142;-0.974;2024-02-14T06:48:28;99589.72;;;26.97;27.87
44313;BME280;38833;51.142;-0.974;2024-02-14T06:51:01;99593.64;;;27.06;27.82
44313;BME280;38833;51.142;-0.974;2024-02-14T06:53:34;99595.28;;;27.07;27.87
44313;BME280;38833;51.142;-0.974;2024-02-14T06:56:07;99604.88;;;27.27;27.71
44313;BME280;38833;51.142;-0.974;2024-02-14T06:58:41;99609.61;;;26.81;27.97
44313;BME280;38833;51.142;-0.974;2024-02-14T07:01:14;99611.23;;;26.96;28.07
44313;BME280;38833;51.142;-0.974;2024-02-14T07:03:47;99611.72;;;27.32;27.75
44313;BME280;38833;51.142;-0.974;2024-02-14T07:06:21;99607.28;;;27.03;27.85
44313;BME280;38833;51.142;-0.974;2024-02-14T07:08:54;99612.92;;;26.94;28.20
44313;BME280;38833;51.142;-0.974;2024-02-14T07:11:27;99622.30;;;26.94;27.76
44313;BME280;38833;51.142;-0.974;2024-02-14T07:14:01;99608.81;;;26.66;28.05
44313;BME280;38833;51.142;-0.974;2024-02-14T07:16:34;99610.37;;;26.78;28.21
44313;BME280;38833;51.142;-0.974;2024-02-14T07:19:07;99611.91;;;27.07;27.97
44313;BME280;38833;51.142;-0.974;2024-02-14T07:21:40;99614.06;;;27.33;27.95
44313;BME280;38833;51.142;-0.974;2024-02-14T07:24:13;99620.63;;;27.01;27.84
44313;BME280;38833;51.142;-0.974;2024-02-14T07:26:47;99630.12;;;26.79;28.07
44313;BME280;38833;51.142;-0.974;2024-02-14T07:29:20;99636.86;;;27.04;28.11
44313;BME280;38833;51.142;-0.974;2024-02-14T07:31:53;99645.76;;;27.19;27.99
44313;BME280;38833;51.142;-0.974;2024-02-14T07:34:26;99632.24;;;27.26;27.65
44313;BME280;38833;51.142;-0.974;2024-02-14T07:37:00;99628.16;;;27.25;27.94
44313;BME280;38833;51.142;-0.974;2024-02-14T07:39:33;99630.88;;;26.77;28.17
44313;BME280;38833;51.142;-0.974;2024-02-14T07:42:06;99626.35;;;26.98;27.99
44313;BME280;38833;51.142;-0.974;2024-02-14T07:44:40;99628.28;;;27.38;27.87
44313;BME280;38833;51.142;-0.974;2024-02-14T07:47:13;99639.61;;;27.24;27.77
44313;BME280;38833;51.142;-0.974;2024-02-14T07:49:46;99650.24;;;27.23;27.79
44313;BME280;38833;51.142;-0.974;2024-02-14T07:52:20;99646.53;;;26.89;28.10
44313;BME280;38833;51.142;-0.974;2024-02-14T07:54:53;99647.14;;;26.91;28.13
44313;BME280;38833;51.142;-0.974;2024-02-14T07:57:27;99651.28;;;27.01;28.32
44313;BME280;38833;51.142;-0.974;2024-02-14T08:00:00;99657.95;;;27.20;27.94
44313;BME280;38833;51.142;-0.974;2024-02-14T08:02:34;99658.78;;;27.41;27.96
44313;BME280;38833;51.142;-0.974;2024-02-14T08:05:07;99657.78;;;27.14;27.99
44313;BME280;38833;51.142;-0.974;2024-02-14T08:07:41;99661.12;;;27.27;27.92
44313;BME280;38833;51.142;-0.974;2024-02-14T08:10:14;99656.21;;;26.76;28.42
44313;BME280;38833;51.142;-0.974;2024-02-14T08:12:47;99655.17;;;27.10;28.11
44313;BME280;38833;51.142;-0.974;2024-02-14T08:20:23;99648.50;;;26.81;28.24
44313;BME280;38833;51.142;-0.974;2024-02-14T08:22:56;99658.49;;;27.04;28.32
44313;BME280;38833;51.142;-0.974;2024-02-14T08:25:30;99658.14;;;26.89;28.45
44313;BME280;38833;51.142;-0.974;2024-02-14T08:28:03;99652.18;;;27.28;28.42
44313;BME280;38833;51.142;-0.974;2024-02-14T08:30:36;99651.05;;;27.12;28.78
44313;BME280;38833;51.142;-0.974;2024-02-14T08:33:10;99643.89;;;27.35;28.58
44313;BME280;38833;51.142;-0.974;2024-02-14T08:35:43;99646.66;;;27.41;28.43
44313;BME280;38833;51.142;-0.974;2024-02-14T08:38:16;99655.52;;;27.29;28.55
44313;BME280;38833;51.142;-0.974;2024-02-14T08:40:50;99657.19;;;27.27;28.51
44313;BME280;38833;51.142;-0.974;2024-02-14T08:43:23;99651.81;;;27.48;28.27
44313;BME280;38833;51.142;-0.974;2024-02-14T08:45:56;99650.09;;;27.80;27.98
44313;BME280;38833;51.142;-0.974;2024-02-14T08:48:29;99654.04;;;27.81;27.96
44313;BME280;38833;51.142;-0.974;2024-02-14T08:51:03;99647.28;;;27.91;27.88
44313;BME280;38833;51.142;-0.974;2024-02-14T08:53:36;99648.73;;;27.72;28.00
44313;BME280;38833;51.142;-0.974;2024-02-14T08:56:09;99651.01;;;27.74;27.92
44313;BME280;38833;51.142;-0.974;2024-02-14T08:58:43;99646.72;;;27.64;27.96
44313;BME280;38833;51.142;-0.974;2024-02-14T09:01:16;99643.36;;;27.54;28.05
44313;BME280;38833;51.142;-0.974;2024-02-14T09:03:49;99641.40;;;27.83;28.54
44313;BME280;38833;51.142;-0.974;2024-02-14T09:06:22;99639.50;;;27.68;29.27
44313;BME280;38833;51.142;-0.974;2024-02-14T09:08:56;99644.71;;;27.71;29.35
44313;BME280;38833;51.142;-0.974;2024-02-14T09:11:29;99648.98;;;27.35;29.32
44313;BME280;38833;51.142;-0.974;2024-02-14T09:14:04;99653.68;;;27.27;29.50
44313;BME280;38833;51.142;-0.974;2024-02-14T09:16:38;99657.58;;;27.57;29.39
44313;BME280;38833;51.142;-0.974;2024-02-14T09:19:11;99649.40;;;27.46;29.54
44313;BME280;38833;51.142;-0.974;2024-02-14T09:21:44;99650.39;;;27.53;29.49
44313;BME280;38833;51.142;-0.974;2024-02-14T09:24:18;99655.64;;;27.35;29.12
44313;BME280;38833;51.142;-0.974;2024-02-14T09:26:51;99659.37;;;26.94;29.13
44313;BME280;38833;51.142;-0.974;2024-02-14T09:29:24;99656.14;;;27.55;28.86
44313;BME280;38833;51.142;-0.974;2024-02-14T09:31:57;99657.77;;;27.62;28.66
44313;BME280;38833;51.142;-0.974;2024-02-14T09:34:31;99667.46;;;27.37;28.55
44313;BME280;38833;51.142;-0.974;2024-02-14T09:37:04;99668.27;;;27.61;28.41
44313;BME280;38833;51.142;-0.974;2024-02-14T09:39:37;99674.99;;;27.35;28.61
44313;BME280;38833;51.142;-0.974;2024-02-14T09:42:14;99681.96;;;27.34;28.31
44313;BME280;38833;51.142;-0.974;2024-02-14T09:44:52;99686.11;;;27.43;28.44
44313;BME280;38833;51.142;-0.974;2024-02-14T09:47:27;99693.58;;;27.20;28.40
44313;BME280;38833;51.142;-0.974;2024-02-14T09:50:02;99698.22;;;27.17;28.39
44313;BME280;38833;51.142;-0.974;2024-02-14T09:52:38;99697.24;;;27.30;28.47
44313;BME280;38833;51.142;-0.974;2024-02-14T10:00:18;99695.21;;;27.29;28.40
44313;BME280;38833;51.142;-0.974;2024-02-14T10:02:52;99689.95;;;27.05;28.37
44313;BME280;38833;51.142;-0.974;2024-02-14T10:05:25;99687.04;;;27.05;28.57
44313;BME280;38833;51.142;-0.974;2024-02-14T10:07:58;99684.24;;;26.83;28.53
44313;BME280;38833;51.142;-0.974;2024-02-14T10:10:32;99690.71;;;27.18;28.60
44313;BME280;38833;51.142;-0.974;2024-02-14T10:13:06;99689.07;;;26.94;28.59
44313;BME280;38833;51.142;-0.974;2024-02-14T10:15:39;99693.31;;;27.03;28.72
44313;BME280;38833;51.142;-0.974;2024-02-14T10:18:14;99691.95;;;26.97;28.75
44313;BME280;38833;51.142;-0.974;2024-02-14T10:20:53;99695.43;;;26.74;28.73
44313;BME280;38833;51.142;-0.974;2024-02-14T10:23:27;99692.80;;;26.92;28.75
44313;BME280;38833;51.142;-0.974;2024-02-14T10:26:00;99695.07;;;26.67;28.74
44313;BME280;38833;51.142;-0.974;2024-02-14T10:28:34;99694.67;;;26.53;28.85
44313;BME280;38833;51.142;-0.974;2024-02-14T10:31:07;99701.79;;;26.51;28.86
44313;BME280;38833;51.142;-0.974;2024-02-14T10:33:41;99699.80;;;26.50;28.85
44313;BME280;38833;51.142;-0.974;2024-02-14T10:36:16;99699.98;;;26.48;28.86
44313;BME280;38833;51.142;-0.974;2024-02-14T10:38:50;99685.18;;;26.70;28.84
44313;BME280;38833;51.142;-0.974;2024-02-14T10:41:24;99683.18;;;26.36;28.95
44313;BME280;38833;51.142;-0.974;2024-02-14T10:43:57;99698.31;;;26.78;28.98
44313;BME280;38833;51.142;-0.974;2024-02-14T10:46:32;99710.80;;;26.49;29.00
44313;BME280;38833;51.142;-0.974;2024-02-14T10:49:07;99717.79;;;26.41;29.08
44313;BME280;38833;51.142;-0.974;2024-02-14T10:51:40;99720.03;;;26.40;29.10
44313;BME280;38833;51.142;-0.974;2024-02-14T10:54:16;99735.11;;;26.43;29.02
44313;BME280;38833;51.142;-0.974;2024-02-14T10:56:52;99738.14;;;26.05;29.20
44313;BME280;38833;51.142;-0.974;2024-02-14T10:59:27;99739.52;;;26.31;29.14
44313;BME280;38833;51.142;-0.974;2024-02-14T11:02:01;99744.29;;;26.50;29.17
44313;BME280;38833;51.142;-0.974;2024-02-14T11:04:35;99746.06;;;26.27;29.16
44313;BME280;38833;51.142;-0.974;2024-02-14T11:07:10;99755.34;;;26.21;29.20
44313;BME280;38833;51.142;-0.974;2024-02-14T11:09:43;99757.25;;;26.16;29.25
44313;BME280;38833;51.142;-0.974;2024-02-14T11:12:17;99753.75;;;26.38;29.26
44313;BME280;38833;51.142;-0.974;2024-02-14T11:14:57;99760.84;;;26.36;29.29
44313;BME280;38833;51.142;-0.974;2024-02-14T11:17:31;99758.50;;;26.27;29.35
44313;BME280;38833;51.142;-0.974;2024-02-14T11:20:15;99764.84;;;26.03;29.31
44313;BME280;38833;51.142;-0.974;2024-02-14T11:22:57;99768.77;;;26.29;29.30
44313;BME280;38833;51.142;-0.974;2024-02-14T11:25:32;99778.90;;;26.27;29.31
44313;BME280;38833;51.142;-0.974;2024-02-14T11:28:13;99785.92;;;26.25;29.30
44313;BME280;38833;51.142;-0.974;2024-02-14T11:30:47;99789.68;;;26.20;29.36
44313;BME280;38833;51.142;-0.974;2024-02-14T11:33:22;99786.68;;;26.16;29.42
44313;BME280;38833;51.142;-0.974;2024-02-14T11:35:56;99783.83;;;25.66;29.40
44313;BME280;38833;51.142;-0.974;2024-02-14T11:38:29;99781.37;;;25.97;29.28
44313;BME280;38833;51.142;-0.974;2024-02-14T11:41:02;99783.87;;;26.17;29.31
44313;BME280;38833;51.142;-0.974;2024-02-14T11:43:36;99785.23;;;26.15;29.33
44313;BME280;38833;51.142;-0.974;2024-02-14T11:46:09;99776.94;;;25.89;29.31
44313;BME280;38833;51.142;-0.974;2024-02-14T11:48:42;99761.77;;;26.00;29.41
44313;BME280;38833;51.142;-0.974;2024-02-14T11:51:15;99758.20;;;25.99;29.52
44313;BME280;38833;51.142;-0.974;2024-02-14T11:53:49;99750.08;;;25.79;29.52
44313;BME280;38833;51.142;-0.974;2024-02-14T11:56:22;99762.62;;;25.98;29.58
44313;BME280;38833;51.142;-0.974;2024-02-14T11:58:56;99762.49;;;25.73;29.54
44313;BME280;38833;51.142;-0.974;2024-02-14T12:01:30;99777.18;;;26.06;29.58
44313;BME280;38833;51.142;-0.974;2024-02-14T12:04:06;99772.18;;;25.98;29.60
44313;BME280;38833;51.142;-0.974;2024-02-14T12:06:40;99775.82;;;25.86;29.73
44313;BME280;38833;51.142;-0.974;2024-02-14T12:09:14;99769.36;;;25.81;29.82
44313;BME280;38833;51.142;-0.974;2024-02-14T12:11:47;99776.38;;;25.90;29.69
44313;BME280;38833;51.142;-0.974;2024-02-14T12:14:22;99772.09;;;25.80;29.80
44313;BME280;38833;51.142;-0.974;2024-02-14T12:16:59;99766.93;;;25.71;29.94
44313;BME280;38833;51.142;-0.974;2024-02-14T12:19:32;99762.06;;;25.75;29.85
44313;BME280;38833;51.142;-0.974;2024-02-14T12:22:09;99768.67;;;25.68;29.93
44313;BME280;38833;51.142;-0.974;2024-02-14T12:24:43;99761.74;;;25.61;29.99
44313;BME280;38833;51.142;-0.974;2024-02-14T12:27:17;99757.51;;;25.58;30.03
44313;BME280;38833;51.142;-0.974;2024-02-14T12:29:51;99755.17;;;25.81;30.05
44313;BME280;38833;51.142;-0.974;2024-02-14T12:32:24;99754.49;;;25.55;30.00
44313;BME280;38833;51.142;-0.974;2024-02-14T12:34:58;99762.51;;;25.60;29.92
44313;BME280;38833;51.142;-0.974;2024-02-14T12:37:32;99760.12;;;25.49;30.09
44313;BME280;38833;51.142;-0.974;2024-02-14T12:40:07;99759.82;;;25.47;29.99
44313;BME280;38833;51.142;-0.974;2024-02-14T12:42:40;99757.88;;;25.46;30.05
44313;BME280;38833;51.142;-0.974;2024-02-14T12:45:14;99759.31;;;25.02;29.99
44313;BME280;38833;51.142;-0.974;2024-02-14T12:47:47;99750.25;;;25.65;29.88
44313;BME280;38833;51.142;-0.974;2024-02-14T12:50:20;99755.25;;;25.59;29.87
44313;BME280;38833;51.142;-0.974;2024-02-14T12:52:54;99755.15;;;25.55;29.95
44313;BME280;38833;51.142;-0.974;2024-02-14T12:55:27;99758.81;;;25.48;29.98
44313;BME280;38833;51.142;-0.974;2024-02-14T12:58:01;99758.43;;;25.30;30.49
44313;BME280;38833;51.142;-0.974;2024-02-14T13:00:35;99751.60;;;25.33;31.37
44313;BME280;38833;51.142;-0.974;2024-02-14T13:03:08;99761.24;;;25.30;31.62
44313;BME280;38833;51.142;-0.974;2024-02-14T13:05:42;99752.30;;;26.00;31.32
44313;BME280;38833;51.142;-0.974;2024-02-14T13:08:15;99752.37;;;25.33;31.16
44313;BME280;38833;51.142;-0.974;2024-02-14T13:10:49;99756.84;;;25.33;30.92
44313;BME280;38833;51.142;-0.974;2024-02-14T13:13:22;99762.53;;;25.28;30.77
44313;BME280;38833;51.142;-0.974;2024-02-14T13:15:55;99750.55;;;25.40;30.57
44313;BME280;38833;51.142;-0.974;2024-02-14T13:18:28;99756.28;;;25.46;30.54
44313;BME280;38833;51.142;-0.974;2024-02-14T13:21:02;99745.80;;;25.31;30.65
44313;BME280;38833;51.142;-0.974;2024-02-14T13:23:35;99740.10;;;25.25;30.68
44313;BME280;38833;51.142;-0.974;2024-02-14T13:26:08;99746.90;;;25.51;31.02
44313;BME280;38833;51.142;-0.974;2024-02-14T13:28:41;99747.47;;;25.30;30.96
44313;BME280;38833;51.142;-0.974;2024-02-14T13:31:15;99751.28;;;25.73;30.78
44313;BME280;38833;51.142;-0.974;2024-02-14T13:33:48;99757.29;;;25.29;30.60